sensor_id;sensor_type;location;lat;lon;timestamp;temperature;humidity
10662;DHT22;5379;51.034;7.006;2022-08-19T00:00:17;29.40;94.10
10662;DHT22;5379;51.034;7.006;2022-08-19T00:02:44;29.50;94.30
10662;DHT22;5379;51.034;7.006;2022-08-19T00:05:14;29.40;94.30
10662;DHT22;5379;51.034;7.006;2022-08-19T00:07:42;29.40;94.20
10662;DHT22;5379;51.034;7.006;2022-08-19T00:10:10;29.40;94.00
10662;DHT22;5379;51.034;7.006;2022-08-19T00:12:37;29.30;94.30
10662;DHT22;5379;51.034;7.006;2022-08-19T00:15:05;29.40;94.40
10662;DHT22;5379;51.034;7.006;2022-08-19T00:17:32;29.30;94.10
10662;DHT22;5379;51.034;7.006;2022-08-19T00:19:59;29.10;94.00
10662;DHT22;5379;51.034;7.006;2022-08-19T00:22:28;29.00;94.10
10662;DHT22;5379;51.034;7.006;2022-08-19T00:24:55;28.90;94.30
10662;DHT22;5379;51.034;7.006;2022-08-19T00:27:22;28.80;94.30
10662;DHT22;5379;51.034;7.006;2022-08-19T00:29:49;28.80;94.40
10662;DHT22;5379;51.034;7.006;2022-08-19T00:32:17;28.70;94.50
10662;DHT22;5379;51.034;7.006;2022-08-19T00:34:44;28.80;94.40
10662;DHT22;5379;51.034;7.006;2022-08-19T00:37:11;28.70;94.20
10662;DHT22;5379;51.034;7.006;2022-08-19T00:39:40;28.70;94.70
10662;DHT22;5379;51.034;7.006;2022-08-19T00:42:07;28.60;94.50
10662;DHT22;5379;51.034;7.006;2022-08-19T00:44:34;28.60;94.70
10662;DHT22;5379;51.034;7.006;2022-08-19T00:47:01;28.50;94.60
10662;DHT22;5379;51.034;7.006;2022-08-19T00:49:31;28.50;94.60
10662;DHT22;5379;51.034;7.006;2022-08-19T00:52:03;28.50;94.70
10662;DHT22;5379;51.034;7.006;2022-08-19T00:54:31;28.50;94.70
10662;DHT22;5379;51.034;7.006;2022-08-19T00:57:02;28.50;94.80
10662;DHT22;5379;51.034;7.006;2022-08-19T00:59:31;28.40;94.70
10662;DHT22;5379;51.034;7.006;2022-08-19T01:01:59;28.40;94.70
10662;DHT22;5379;51.034;7.006;2022-08-19T01:04:26;28.30;94.80
10662;DHT22;5379;51.034;7.006;2022-08-19T01:06:54;28.20;94.80
10662;DHT22;5379;51.034;7.006;2022-08-19T01:09:22;28.30;94.90
10662;DHT22;5379;51.034;7.006;2022-08-19T01:11:50;28.30;94.80
10662;DHT22;5379;51.034;7.006;2022-08-19T01:14:19;28.30;94.90
10662;DHT22;5379;51.034;7.006;2022-08-19T01:16:46;28.20;94.70
10662;DHT22;5379;51.034;7.006;2022-08-19T01:19:29;28.20;94.70
10662;DHT22;5379;51.034;7.006;2022-08-19T01:22:01;28.20;94.90
10662;DHT22;5379;51.034;7.006;2022-08-19T01:24:30;28.10;95.00
10662;DHT22;5379;51.034;7.006;2022-08-19T01:26:57;28.10;94.90
10662;DHT22;5379;51.034;7.006;2022-08-19T01:29:25;28.10;94.80
10662;DHT22;5379;51.034;7.006;2022-08-19T01:31:52;28.00;94.70
10662;DHT22;5379;51.034;7.006;2022-08-19T01:34:19;28.00;94.90
10662;DHT22;5379;51.034;7.006;2022-08-19T01:36:47;28.00;94.90
10662;DHT22;5379;51.034;7.006;2022-08-19T01:39:18;28.10;95.20
10662;DHT22;5379;51.034;7.006;2022-08-19T01:41:47;28.00;94.80
10662;DHT22;5379;51.034;7.006;2022-08-19T01:44:15;28.00;94.80
10662;DHT22;5379;51.034;7.006;2022-08-19T01:46:43;28.00;94.70
10662;DHT22;5379;51.034;7.006;2022-08-19T01:49:10;27.90;94.70
10662;DHT22;5379;51.034;7.006;2022-08-19T01:51:37;27.80;94.80
10662;DHT22;5379;51.034;7.006;2022-08-19T01:54:04;27.80;95.00
10662;DHT22;5379;51.034;7.006;2022-08-19T01:56:31;27.80;94.80
10662;DHT22;5379;51.034;7.006;2022-08-19T01:59:05;27.80;94.70
10662;DHT22;5379;51.034;7.006;2022-08-19T02:01:35;27.90;94.90
10662;DHT22;5379;51.034;7.006;2022-08-19T02:04:02;27.80;94.70
10662;DHT22;5379;51.034;7.006;2022-08-19T02:06:30;27.80;94.80
10662;DHT22;5379;51.034;7.006;2022-08-19T02:08:57;27.70;94.80
10662;DHT22;5379;51.034;7.006;2022-08-19T02:11:26;27.80;94.80
10662;DHT22;5379;51.034;7.006;2022-08-19T02:13:54;27.80;94.80
10662;DHT22;5379;51.034;7.006;2022-08-19T02:16:23;27.90;94.70
10662;DHT22;5379;51.034;7.006;2022-08-19T02:18:50;27.80;94.70
10662;DHT22;5379;51.034;7.006;2022-08-19T02:21:19;27.70;94.60
10662;DHT22;5379;51.034;7.006;2022-08-19T02:23:47;27.70;94.70
10662;DHT22;5379;51.034;7.006;2022-08-19T02:26:14;27.60;94.80
10662;DHT22;5379;51.034;7.006;2022-08-19T02:28:42;27.70;94.80
10662;DHT22;5379;51.034;7.006;2022-08-19T02:31:10;27.70;94.80
10662;DHT22;5379;51.034;7.006;2022-08-19T02:33:39;27.60;94.80
10662;DHT22;5379;51.034;7.006;2022-08-19T02:36:07;27.60;94.90
10662;DHT22;5379;51.034;7.006;2022-08-19T02:38:34;27.60;94.80
10662;DHT22;5379;51.034;7.006;2022-08-19T02:41:04;27.70;94.80
10662;DHT22;5379;51.034;7.006;2022-08-19T02:43:33;27.70;94.60
10662;DHT22;5379;51.034;7.006;2022-08-19T02:46:10;27.60;95.10
10662;DHT22;5379;51.034;7.006;2022-08-19T02:48:38;27.60;94.80
10662;DHT22;5379;51.034;7.006;2022-08-19T02:51:06;27.70;94.90
10662;DHT22;5379;51.034;7.006;2022-08-19T02:53:33;27.70;94.90
10662;DHT22;5379;51.034;7.006;2022-08-19T02:56:00;27.80;94.70
10662;DHT22;5379;51.034;7.006;2022-08-19T02:58:27;27.80;94.60
10662;DHT22;5379;51.034;7.006;2022-08-19T03:00:55;27.80;94.50
10662;DHT22;5379;51.034;7.006;2022-08-19T03:03:22;27.70;94.60
10662;DHT22;5379;51.034;7.006;2022-08-19T03:05:51;27.70;94.70
10662;DHT22;5379;51.034;7.006;2022-08-19T03:08:18;27.70;94.70
10662;DHT22;5379;51.034;7.006;2022-08-19T03:10:47;27.70;94.60
10662;DHT22;5379;51.034;7.006;2022-08-19T03:13:16;27.80;94.70
10662;DHT22;5379;51.034;7.006;2022-08-19T03:15:45;27.70;94.60
10662;DHT22;5379;51.034;7.006;2022-08-19T03:18:13;27.70;94.70
10662;DHT22;5379;51.034;7.006;2022-08-19T03:20:42;27.60;94.60
10662;DHT22;5379;51.034;7.006;2022-08-19T03:23:10;27.50;94.70
10662;DHT22;5379;51.034;7.006;2022-08-19T03:25:40;27.50;94.80
10662;DHT22;5379;51.034;7.006;2022-08-19T03:28:09;27.40;94.90
10662;DHT22;5379;51.034;7.006;2022-08-19T03:30:36;27.40;94.90
10662;DHT22;5379;51.034;7.006;2022-08-19T03:33:03;27.50;94.90
10662;DHT22;5379;51.034;7.006;2022-08-19T03:35:30;27.50;94.80
10662;DHT22;5379;51.034;7.006;2022-08-19T03:37:58;27.50;94.80
10662;DHT22;5379;51.034;7.006;2022-08-19T03:40:27;27.50;94.90
10662;DHT22;5379;51.034;7.006;2022-08-19T03:42:56;27.50;94.80
10662;DHT22;5379;51.034;7.006;2022-08-19T03:45:23;27.50;94.70
10662;DHT22;5379;51.034;7.006;2022-08-19T03:47:50;27.40;94.90
10662;DHT22;5379;51.034;7.006;2022-08-19T03:50:17;27.40;94.90
10662;DHT22;5379;51.034;7.006;2022-08-19T03:52:48;27.40;94.90
10662;DHT22;5379;51.034;7.006;2022-08-19T03:55:16;27.50;94.80
10662;DHT22;5379;51.034;7.006;2022-08-19T03:57:45;27.60;94.80
10662;DHT22;5379;51.034;7.006;2022-08-19T04:00:14;27.50;94.60
10662;DHT22;5379;51.034;7.006;2022-08-19T04:02:41;27.50;94.80
10662;DHT22;5379;51.034;7.006;2022-08-19T04:05:09;27.50;94.80
10662;DHT22;5379;51.034;7.006;2022-08-19T04:07:36;27.50;94.90
10662;DHT22;5379;51.034;7.006;2022-08-19T04:10:04;27.50;94.80
10662;DHT22;5379;51.034;7.006;2022-08-19T04:12:31;27.50;95.10
10662;DHT22;5379;51.034;7.006;2022-08-19T04:15:00;27.50;94.80
10662;DHT22;5379;51.034;7.006;2022-08-19T04:17:27;27.50;94.80
10662;DHT22;5379;51.034;7.006;2022-08-19T04:19:54;27.40;94.80
10662;DHT22;5379;51.034;7.006;2022-08-19T04:22:21;27.50;94.90
10662;DHT22;5379;51.034;7.006;2022-08-19T04:24:48;27.70;94.80
10662;DHT22;5379;51.034;7.006;2022-08-19T04:27:15;27.70;94.80
10662;DHT22;5379;51.034;7.006;2022-08-19T04:29:42;27.70;94.60
10662;DHT22;5379;51.034;7.006;2022-08-19T04:32:10;27.70;94.60
10662;DHT22;5379;51.034;7.006;2022-08-19T04:34:41;27.50;94.50
10662;DHT22;5379;51.034;7.006;2022-08-19T04:37:08;26.40;94.40
10662;DHT22;5379;51.034;7.006;2022-08-19T04:39:38;27.50;94.90
10662;DHT22;5379;51.034;7.006;2022-08-19T04:42:23;27.60;94.50
10662;DHT22;5379;51.034;7.006;2022-08-19T04:45:05;27.70;94.90
10662;DHT22;5379;51.034;7.006;2022-08-19T04:47:34;27.70;95.10
10662;DHT22;5379;51.034;7.006;2022-08-19T04:50:03;27.70;94.60
10662;DHT22;5379;51.034;7.006;2022-08-19T04:52:30;27.90;94.80
10662;DHT22;5379;51.034;7.006;2022-08-19T04:54:57;28.10;94.80
10662;DHT22;5379;51.034;7.006;2022-08-19T04:57:25;28.00;94.50
10662;DHT22;5379;51.034;7.006;2022-08-19T04:59:54;28.20;94.80
10662;DHT22;5379;51.034;7.006;2022-08-19T05:02:21;28.00;94.30
10662;DHT22;5379;51.034;7.006;2022-08-19T05:04:56;28.00;94.20
10662;DHT22;5379;51.034;7.006;2022-08-19T05:07:24;28.10;95.00
10662;DHT22;5379;51.034;7.006;2022-08-19T05:09:51;28.80;94.30
10662;DHT22;5379;51.034;7.006;2022-08-19T05:12:18;28.00;94.40
10662;DHT22;5379;51.034;7.006;2022-08-19T05:14:46;27.90;94.30
10662;DHT22;5379;51.034;7.006;2022-08-19T05:17:15;27.90;94.70
10662;DHT22;5379;51.034;7.006;2022-08-19T05:19:42;28.00;94.60
10662;DHT22;5379;51.034;7.006;2022-08-19T05:22:27;28.10;94.80
10662;DHT22;5379;51.034;7.006;2022-08-19T05:25:06;28.10;94.70
10662;DHT22;5379;51.034;7.006;2022-08-19T05:27:33;28.10;94.50
10662;DHT22;5379;51.034;7.006;2022-08-19T05:30:00;28.10;94.60
10662;DHT22;5379;51.034;7.006;2022-08-19T05:32:28;28.30;94.30
10662;DHT22;5379;51.034;7.006;2022-08-19T05:34:55;28.20;94.10
10662;DHT22;5379;51.034;7.006;2022-08-19T05:37:22;28.00;94.20
10662;DHT22;5379;51.034;7.006;2022-08-19T05:39:54;28.10;94.70
10662;DHT22;5379;51.034;7.006;2022-08-19T05:42:21;28.00;94.10
10662;DHT22;5379;51.034;7.006;2022-08-19T05:44:49;28.00;95.00
10662;DHT22;5379;51.034;7.006;2022-08-19T05:47:16;28.20;95.00
10662;DHT22;5379;51.034;7.006;2022-08-19T05:49:45;28.30;95.00
10662;DHT22;5379;51.034;7.006;2022-08-19T05:52:13;28.50;94.80
10662;DHT22;5379;51.034;7.006;2022-08-19T05:54:42;28.60;94.60
10662;DHT22;5379;51.034;7.006;2022-08-19T05:57:15;28.70;94.60
10662;DHT22;5379;51.034;7.006;2022-08-19T05:59:42;28.80;94.00
10662;DHT22;5379;51.034;7.006;2022-08-19T06:02:09;28.80;94.50
10662;DHT22;5379;51.034;7.006;2022-08-19T06:04:36;28.90;94.30
10662;DHT22;5379;51.034;7.006;2022-08-19T06:07:05;28.70;94.70
10662;DHT22;5379;51.034;7.006;2022-08-19T06:09:32;28.70;94.90
10662;DHT22;5379;51.034;7.006;2022-08-19T06:11:59;28.80;94.70
10662;DHT22;5379;51.034;7.006;2022-08-19T06:14:31;28.80;94.50
10662;DHT22;5379;51.034;7.006;2022-08-19T06:17:00;28.60;94.60
10662;DHT22;5379;51.034;7.006;2022-08-19T06:19:29;28.50;94.90
10662;DHT22;5379;51.034;7.006;2022-08-19T06:21:58;28.60;94.70
10662;DHT22;5379;51.034;7.006;2022-08-19T06:24:27;28.60;94.60
10662;DHT22;5379;51.034;7.006;2022-08-19T06:26:56;28.70;94.80
10662;DHT22;5379;51.034;7.006;2022-08-19T06:29:25;28.60;94.60
10662;DHT22;5379;51.034;7.006;2022-08-19T06:31:56;28.70;94.60
10662;DHT22;5379;51.034;7.006;2022-08-19T06:34:24;28.70;94.80
10662;DHT22;5379;51.034;7.006;2022-08-19T06:36:51;28.80;94.70
10662;DHT22;5379;51.034;7.006;2022-08-19T06:39:22;28.50;94.80
10662;DHT22;5379;51.034;7.006;2022-08-19T06:41:52;28.50;95.00
10662;DHT22;5379;51.034;7.006;2022-08-19T06:44:21;28.60;95.00
10662;DHT22;5379;51.034;7.006;2022-08-19T06:46:49;28.60;95.40
10662;DHT22;5379;51.034;7.006;2022-08-19T06:49:18;28.70;95.00
10662;DHT22;5379;51.034;7.006;2022-08-19T06:51:47;28.80;94.80
10662;DHT22;5379;51.034;7.006;2022-08-19T06:54:15;28.90;94.80
10662;DHT22;5379;51.034;7.006;2022-08-19T06:56:43;28.90;94.80
10662;DHT22;5379;51.034;7.006;2022-08-19T06:59:14;28.70;95.00
10662;DHT22;5379;51.034;7.006;2022-08-19T07:01:45;28.70;94.90
10662;DHT22;5379;51.034;7.006;2022-08-19T07:04:14;28.60;95.50
10662;DHT22;5379;51.034;7.006;2022-08-19T07:06:43;28.70;95.20
10662;DHT22;5379;51.034;7.006;2022-08-19T07:09:13;28.50;94.80
10662;DHT22;5379;51.034;7.006;2022-08-19T07:11:44;28.50;95.10
10662;DHT22;5379;51.034;7.006;2022-08-19T07:14:15;28.60;95.00
10662;DHT22;5379;51.034;7.006;2022-08-19T07:16:43;28.60;95.40
10662;DHT22;5379;51.034;7.006;2022-08-19T07:19:12;28.60;95.00
10662;DHT22;5379;51.034;7.006;2022-08-19T07:21:40;28.10;95.50
10662;DHT22;5379;51.034;7.006;2022-08-19T07:24:09;28.00;95.80
10662;DHT22;5379;51.034;7.006;2022-08-19T07:26:39;27.90;95.80
10662;DHT22;5379;51.034;7.006;2022-08-19T07:29:08;27.70;96.00
10662;DHT22;5379;51.034;7.006;2022-08-19T07:31:35;27.80;96.00
10662;DHT22;5379;51.034;7.006;2022-08-19T07:34:04;27.60;96.00
10662;DHT22;5379;51.034;7.006;2022-08-19T07:36:34;27.90;96.20
10662;DHT22;5379;51.034;7.006;2022-08-19T07:39:05;28.10;96.20
10662;DHT22;5379;51.034;7.006;2022-08-19T07:41:38;28.30;96.00
10662;DHT22;5379;51.034;7.006;2022-08-19T07:44:05;28.40;95.70
10662;DHT22;5379;51.034;7.006;2022-08-19T07:46:35;28.50;95.50
10662;DHT22;5379;51.034;7.006;2022-08-19T07:49:03;28.20;95.90
10662;DHT22;5379;51.034;7.006;2022-08-19T07:51:31;28.10;96.10
10662;DHT22;5379;51.034;7.006;2022-08-19T07:53:58;28.20;96.00
10662;DHT22;5379;51.034;7.006;2022-08-19T07:56:25;28.40;95.70
10662;DHT22;5379;51.034;7.006;2022-08-19T07:58:54;28.60;95.50
10662;DHT22;5379;51.034;7.006;2022-08-19T08:01:24;28.60;95.20
10662;DHT22;5379;51.034;7.006;2022-08-19T08:03:53;28.50;95.40
10662;DHT22;5379;51.034;7.006;2022-08-19T08:06:38;28.60;95.60
10662;DHT22;5379;51.034;7.006;2022-08-19T08:09:25;28.50;95.30
10662;DHT22;5379;51.034;7.006;2022-08-19T08:11:54;28.30;95.60
10662;DHT22;5379;51.034;7.006;2022-08-19T08:14:26;28.00;95.80
10662;DHT22;5379;51.034;7.006;2022-08-19T08:16:54;27.60;96.30
10662;DHT22;5379;51.034;7.006;2022-08-19T08:19:23;27.80;96.30
10662;DHT22;5379;51.034;7.006;2022-08-19T08:21:50;28.10;96.00
10662;DHT22;5379;51.034;7.006;2022-08-19T08:24:18;28.00;96.20
10662;DHT22;5379;51.034;7.006;2022-08-19T08:26:45;28.20;96.00
10662;DHT22;5379;51.034;7.006;2022-08-19T08:29:13;28.30;96.00
10662;DHT22;5379;51.034;7.006;2022-08-19T08:31:43;28.40;95.50
10662;DHT22;5379;51.034;7.006;2022-08-19T08:34:11;27.90;95.90
10662;DHT22;5379;51.034;7.006;2022-08-19T08:36:42;27.90;96.40
10662;DHT22;5379;51.034;7.006;2022-08-19T08:39:14;28.20;96.20
10662;DHT22;5379;51.034;7.006;2022-08-19T08:41:50;28.30;95.90
10662;DHT22;5379;51.034;7.006;2022-08-19T08:44:23;28.50;95.80
10662;DHT22;5379;51.034;7.006;2022-08-19T08:47:00;28.50;95.60
10662;DHT22;5379;51.034;7.006;2022-08-19T08:49:33;28.60;95.60
10662;DHT22;5379;51.034;7.006;2022-08-19T08:52:05;28.50;95.60
10662;DHT22;5379;51.034;7.006;2022-08-19T08:54:35;28.50;95.60
10662;DHT22;5379;51.034;7.006;2022-08-19T08:57:07;28.60;95.70
10662;DHT22;5379;51.034;7.006;2022-08-19T08:59:40;28.30;95.60
10662;DHT22;5379;51.034;7.006;2022-08-19T09:02:09;28.10;96.30
10662;DHT22;5379;51.034;7.006;2022-08-19T09:04:37;28.00;96.20
10662;DHT22;5379;51.034;7.006;2022-08-19T09:07:19;27.50;96.60
10662;DHT22;5379;51.034;7.006;2022-08-19T09:09:50;27.80;96.90
10662;DHT22;5379;51.034;7.006;2022-08-19T09:12:23;28.10;96.30
10662;DHT22;5379;51.034;7.006;2022-08-19T09:14:55;27.90;96.20
10662;DHT22;5379;51.034;7.006;2022-08-19T09:17:27;27.80;96.70
10662;DHT22;5379;51.034;7.006;2022-08-19T09:20:00;27.20;96.80
10662;DHT22;5379;51.034;7.006;2022-08-19T09:22:34;27.30;97.30
10662;DHT22;5379;51.034;7.006;2022-08-19T09:25:02;27.50;97.10
10662;DHT22;5379;51.034;7.006;2022-08-19T09:27:31;27.40;97.20
10662;DHT22;5379;51.034;7.006;2022-08-19T09:29:59;27.70;97.10
10662;DHT22;5379;51.034;7.006;2022-08-19T09:32:27;28.00;96.60
10662;DHT22;5379;51.034;7.006;2022-08-19T09:34:54;28.20;96.10
10662;DHT22;5379;51.034;7.006;2022-08-19T09:37:23;28.00;96.20
10662;DHT22;5379;51.034;7.006;2022-08-19T09:39:51;27.90;96.40
10662;DHT22;5379;51.034;7.006;2022-08-19T09:42:18;28.10;96.60
10662;DHT22;5379;51.034;7.006;2022-08-19T09:44:45;28.30;95.80
10662;DHT22;5379;51.034;7.006;2022-08-19T09:47:13;27.60;96.70
10662;DHT22;5379;51.034;7.006;2022-08-19T09:49:42;27.30;97.40
10662;DHT22;5379;51.034;7.006;2022-08-19T09:52:11;27.60;96.90
10662;DHT22;5379;51.034;7.006;2022-08-19T09:54:38;27.60;96.60
10662;DHT22;5379;51.034;7.006;2022-08-19T09:57:05;27.60;96.70
10662;DHT22;5379;51.034;7.006;2022-08-19T09:59:33;27.10;97.00
10662;DHT22;5379;51.034;7.006;2022-08-19T10:02:00;27.40;97.10
10662;DHT22;5379;51.034;7.006;2022-08-19T10:04:27;27.80;96.10
10662;DHT22;5379;51.034;7.006;2022-08-19T10:07:16;27.60;96.70
10662;DHT22;5379;51.034;7.006;2022-08-19T10:09:43;27.80;96.20
10662;DHT22;5379;51.034;7.006;2022-08-19T10:12:10;28.10;95.90
10662;DHT22;5379;51.034;7.006;2022-08-19T10:14:38;27.40;96.50
10662;DHT22;5379;51.034;7.006;2022-08-19T10:17:05;27.00;97.20
10662;DHT22;5379;51.034;7.006;2022-08-19T10:19:32;27.30;96.00
10662;DHT22;5379;51.034;7.006;2022-08-19T10:22:03;27.60;95.40
10662;DHT22;5379;51.034;7.006;2022-08-19T10:24:32;27.10;96.60
10662;DHT22;5379;51.034;7.006;2022-08-19T10:27:00;26.80;97.10
10662;DHT22;5379;51.034;7.006;2022-08-19T10:29:29;26.90;97.00
10662;DHT22;5379;51.034;7.006;2022-08-19T10:31:57;27.10;96.90
10662;DHT22;5379;51.034;7.006;2022-08-19T10:34:26;27.10;96.60
10662;DHT22;5379;51.034;7.006;2022-08-19T10:36:53;27.40;95.90
10662;DHT22;5379;51.034;7.006;2022-08-19T10:39:20;27.80;95.20
10662;DHT22;5379;51.034;7.006;2022-08-19T10:41:49;28.20;94.80
10662;DHT22;5379;51.034;7.006;2022-08-19T10:44:16;28.20;95.10
10662;DHT22;5379;51.034;7.006;2022-08-19T10:46:43;27.90;95.70
10662;DHT22;5379;51.034;7.006;2022-08-19T10:49:12;27.40;95.90
10662;DHT22;5379;51.034;7.006;2022-08-19T10:51:40;27.70;96.10
10662;DHT22;5379;51.034;7.006;2022-08-19T10:54:25;27.70;95.90
10662;DHT22;5379;51.034;7.006;2022-08-19T10:57:15;27.70;95.80
10662;DHT22;5379;51.034;7.006;2022-08-19T10:59:41;28.20;95.40
10662;DHT22;5379;51.034;7.006;2022-08-19T11:02:09;28.20;94.90
10662;DHT22;5379;51.034;7.006;2022-08-19T11:04:38;28.10;95.30
10662;DHT22;5379;51.034;7.006;2022-08-19T11:07:07;28.10;95.40
10662;DHT22;5379;51.034;7.006;2022-08-19T11:09:38;27.80;95.80
10662;DHT22;5379;51.034;7.006;2022-08-19T11:12:06;27.70;95.60
10662;DHT22;5379;51.034;7.006;2022-08-19T11:14:36;27.90;95.30
10662;DHT22;5379;51.034;7.006;2022-08-19T11:17:04;28.10;95.10
10662;DHT22;5379;51.034;7.006;2022-08-19T11:19:33;28.00;95.40
10662;DHT22;5379;51.034;7.006;2022-08-19T11:22:01;27.80;95.90
10662;DHT22;5379;51.034;7.006;2022-08-19T11:24:30;27.30;96.30
10662;DHT22;5379;51.034;7.006;2022-08-19T11:27:05;27.00;96.80
10662;DHT22;5379;51.034;7.006;2022-08-19T11:29:33;26.80;96.80
10662;DHT22;5379;51.034;7.006;2022-08-19T11:32:04;26.50;97.10
10662;DHT22;5379;51.034;7.006;2022-08-19T11:34:32;26.50;97.50
10662;DHT22;5379;51.034;7.006;2022-08-19T11:37:01;26.30;97.40
10662;DHT22;5379;51.034;7.006;2022-08-19T11:39:30;26.70;97.10
10662;DHT22;5379;51.034;7.006;2022-08-19T11:41:59;26.70;97.10
10662;DHT22;5379;51.034;7.006;2022-08-19T11:44:26;27.30;96.50
10662;DHT22;5379;51.034;7.006;2022-08-19T11:46:56;27.80;95.80
10662;DHT22;5379;51.034;7.006;2022-08-19T11:49:24;28.10;94.60
10662;DHT22;5379;51.034;7.006;2022-08-19T11:51:51;28.30;94.70
10662;DHT22;5379;51.034;7.006;2022-08-19T11:54:19;28.50;94.20
10662;DHT22;5379;51.034;7.006;2022-08-19T11:56:46;28.50;93.90
10662;DHT22;5379;51.034;7.006;2022-08-19T11:59:14;28.60;94.20
10662;DHT22;5379;51.034;7.006;2022-08-19T12:01:42;28.70;94.20
10662;DHT22;5379;51.034;7.006;2022-08-19T12:04:09;28.30;94.80
10662;DHT22;5379;51.034;7.006;2022-08-19T12:06:39;28.10;94.80
10662;DHT22;5379;51.034;7.006;2022-08-19T12:09:09;28.20;94.20
10662;DHT22;5379;51.034;7.006;2022-08-19T12:11:37;28.50;94.30
10662;DHT22;5379;51.034;7.006;2022-08-19T12:14:05;29.00;93.90
10662;DHT22;5379;51.034;7.006;2022-08-19T12:16:33;29.00;93.70
10662;DHT22;5379;51.034;7.006;2022-08-19T12:19:02;29.20;93.60
10662;DHT22;5379;51.034;7.006;2022-08-19T12:21:31;29.20;93.20
10662;DHT22;5379;51.034;7.006;2022-08-19T12:24:02;29.10;93.40
10662;DHT22;5379;51.034;7.006;2022-08-19T12:26:30;29.30;93.40
10662;DHT22;5379;51.034;7.006;2022-08-19T12:28:58;29.20;93.00
10662;DHT22;5379;51.034;7.006;2022-08-19T12:31:26;29.40;93.10
10662;DHT22;5379;51.034;7.006;2022-08-19T12:33:54;29.30;93.10
10662;DHT22;5379;51.034;7.006;2022-08-19T12:36:21;29.40;93.10
10662;DHT22;5379;51.034;7.006;2022-08-19T12:38:49;29.40;92.90
10662;DHT22;5379;51.034;7.006;2022-08-19T12:41:18;29.20;92.30
10662;DHT22;5379;51.034;7.006;2022-08-19T12:43:48;29.20;92.40
10662;DHT22;5379;51.034;7.006;2022-08-19T12:46:16;29.40;92.40
10662;DHT22;5379;51.034;7.006;2022-08-19T12:48:44;29.60;92.40
10662;DHT22;5379;51.034;7.006;2022-08-19T12:51:14;29.70;92.50
10662;DHT22;5379;51.034;7.006;2022-08-19T12:53:43;29.80;92.60
10662;DHT22;5379;51.034;7.006;2022-08-19T12:56:11;29.80;92.90
10662;DHT22;5379;51.034;7.006;2022-08-19T12:58:41;29.80;92.90
10662;DHT22;5379;51.034;7.006;2022-08-19T13:01:10;29.80;92.80
10662;DHT22;5379;51.034;7.006;2022-08-19T13:03:38;29.80;92.60
10662;DHT22;5379;51.034;7.006;2022-08-19T13:06:06;29.80;93.00
10662;DHT22;5379;51.034;7.006;2022-08-19T13:08:33;29.80;93.10
10662;DHT22;5379;51.034;7.006;2022-08-19T13:11:08;29.70;93.00
10662;DHT22;5379;51.034;7.006;2022-08-19T13:13:36;29.80;92.90
10662;DHT22;5379;51.034;7.006;2022-08-19T13:16:08;29.80;93.00
10662;DHT22;5379;51.034;7.006;2022-08-19T13:18:37;29.80;93.10
10662;DHT22;5379;51.034;7.006;2022-08-19T13:21:06;29.70;93.30
10662;DHT22;5379;51.034;7.006;2022-08-19T13:23:34;29.70;93.30
10662;DHT22;5379;51.034;7.006;2022-08-19T13:26:05;29.70;93.30
10662;DHT22;5379;51.034;7.006;2022-08-19T13:28:33;29.70;93.00
10662;DHT22;5379;51.034;7.006;2022-08-19T13:31:17;29.70;92.90
10662;DHT22;5379;51.034;7.006;2022-08-19T13:34:02;29.70;92.60
10662;DHT22;5379;51.034;7.006;2022-08-19T13:36:30;29.70;93.00
10662;DHT22;5379;51.034;7.006;2022-08-19T13:38:57;29.70;92.50
10662;DHT22;5379;51.034;7.006;2022-08-19T13:41:24;29.70;92.30
10662;DHT22;5379;51.034;7.006;2022-08-19T13:43:51;29.70;91.60
10662;DHT22;5379;51.034;7.006;2022-08-19T13:46:20;29.80;92.10
10662;DHT22;5379;51.034;7.006;2022-08-19T13:48:48;29.80;92.20
10662;DHT22;5379;51.034;7.006;2022-08-19T13:51:17;29.90;92.50
10662;DHT22;5379;51.034;7.006;2022-08-19T13:53:44;29.80;92.50
10662;DHT22;5379;51.034;7.006;2022-08-19T13:56:13;29.80;91.60
10662;DHT22;5379;51.034;7.006;2022-08-19T13:58:41;29.80;91.60
10662;DHT22;5379;51.034;7.006;2022-08-19T14:01:09;29.90;91.40
10662;DHT22;5379;51.034;7.006;2022-08-19T14:03:38;29.90;91.10
10662;DHT22;5379;51.034;7.006;2022-08-19T14:06:05;29.90;91.20
10662;DHT22;5379;51.034;7.006;2022-08-19T14:08:32;29.90;91.10
10662;DHT22;5379;51.034;7.006;2022-08-19T14:11:00;30.00;91.40
10662;DHT22;5379;51.034;7.006;2022-08-19T14:13:27;29.90;91.00
10662;DHT22;5379;51.034;7.006;2022-08-19T14:15:54;29.60;88.40
10662;DHT22;5379;51.034;7.006;2022-08-19T14:18:21;29.60;90.40
10662;DHT22;5379;51.034;7.006;2022-08-19T14:20:49;29.70;90.80
10662;DHT22;5379;51.034;7.006;2022-08-19T14:23:16;29.50;90.00
10662;DHT22;5379;51.034;7.006;2022-08-19T14:25:44;29.30;90.70
10662;DHT22;5379;51.034;7.006;2022-08-19T14:28:12;29.20;91.30
10662;DHT22;5379;51.034;7.006;2022-08-19T14:30:39;29.20;89.60
10662;DHT22;5379;51.034;7.006;2022-08-19T14:33:06;29.60;90.80
10662;DHT22;5379;51.034;7.006;2022-08-19T14:35:34;29.50;89.70
10662;DHT22;5379;51.034;7.006;2022-08-19T14:38:03;29.50;91.00
10662;DHT22;5379;51.034;7.006;2022-08-19T14:40:31;29.30;91.90
10662;DHT22;5379;51.034;7.006;2022-08-19T14:43:00;28.20;92.70
10662;DHT22;5379;51.034;7.006;2022-08-19T14:45:30;27.90;93.40
10662;DHT22;5379;51.034;7.006;2022-08-19T14:47:58;28.00;92.90
10662;DHT22;5379;51.034;7.006;2022-08-19T14:50:26;28.00;93.00
10662;DHT22;5379;51.034;7.006;2022-08-19T14:52:58;28.00;93.50
10662;DHT22;5379;51.034;7.006;2022-08-19T14:55:27;27.60;93.50
10662;DHT22;5379;51.034;7.006;2022-08-19T14:57:54;27.70;93.50
10662;DHT22;5379;51.034;7.006;2022-08-19T15:00:22;27.70;94.00
10662;DHT22;5379;51.034;7.006;2022-08-19T15:02:49;27.40;93.80
10662;DHT22;5379;51.034;7.006;2022-08-19T15:05:17;27.10;94.50
10662;DHT22;5379;51.034;7.006;2022-08-19T15:07:44;27.60;93.60
10662;DHT22;5379;51.034;7.006;2022-08-19T15:10:12;28.00;92.80
10662;DHT22;5379;51.034;7.006;2022-08-19T15:12:41;27.80;93.50
10662;DHT22;5379;51.034;7.006;2022-08-19T15:15:11;27.70;93.90
10662;DHT22;5379;51.034;7.006;2022-08-19T15:17:39;27.60;94.20
10662;DHT22;5379;51.034;7.006;2022-08-19T15:20:07;27.00;94.20
10662;DHT22;5379;51.034;7.006;2022-08-19T15:22:35;26.90;94.20
10662;DHT22;5379;51.034;7.006;2022-08-19T15:25:03;26.80;94.70
10662;DHT22;5379;51.034;7.006;2022-08-19T15:27:30;27.00;94.70
10662;DHT22;5379;51.034;7.006;2022-08-19T15:29:59;26.90;94.60
10662;DHT22;5379;51.034;7.006;2022-08-19T15:32:26;27.10;93.70
10662;DHT22;5379;51.034;7.006;2022-08-19T15:34:53;27.30;91.80
10662;DHT22;5379;51.034;7.006;2022-08-19T15:37:20;27.70;93.20
10662;DHT22;5379;51.034;7.006;2022-08-19T15:39:48;27.60;92.30
10662;DHT22;5379;51.034;7.006;2022-08-19T15:42:15;27.50;93.30
10662;DHT22;5379;51.034;7.006;2022-08-19T15:44:42;27.50;93.50
10662;DHT22;5379;51.034;7.006;2022-08-19T15:47:11;27.30;94.10
10662;DHT22;5379;51.034;7.006;2022-08-19T15:49:38;27.10;94.30
10662;DHT22;5379;51.034;7.006;2022-08-19T15:52:05;27.60;93.60
10662;DHT22;5379;51.034;7.006;2022-08-19T15:54:33;27.90;92.80